createdAt,value
2023-02-14T17:38:02.700Z,1022.12
2023-02-14T17:39:03.600Z,1022.18
2023-02-14T17:40:03.712Z,1022.20
2023-02-14T17:41:03.745Z,1022.17
2023-02-14T17:42:03.793Z,1022.18
2023-02-14T17:43:03.805Z,1022.15
2023-02-14T17:44:03.848Z,1022.16
2023-02-14T17:45:03.797Z,1022.09
2023-02-14T17:46:03.787Z,1022.12
2023-02-14T17:47:03.851Z,1022.08
2023-02-14T17:48:04.268Z,1022.08
2023-02-14T17:49:03.838Z,1022.09
2023-02-14T17:50:03.807Z,1022.06
2023-02-14T17:51:03.919Z,1022.11
2023-02-14T17:52:03.760Z,1022.10
2023-02-14T17:53:03.800Z,1022.11
2023-02-14T17:54:03.742Z,1022.14
2023-02-14T17:55:03.749Z,1022.15
2023-02-14T17:56:03.792Z,1022.20
2023-02-14T17:57:03.710Z,1022.16
2023-02-14T17:58:03.721Z,1022.19
2023-02-14T17:59:03.747Z,1022.15
2023-02-14T18:00:03.638Z,1022.12
2023-02-14T18:01:03.570Z,1022.08
2023-02-14T18:02:03.583Z,1022.07
2023-02-14T18:03:03.520Z,1022.11
2023-02-14T18:04:03.523Z,1022.04
2023-02-14T18:05:03.579Z,1022.04
2023-02-14T18:06:03.370Z,1022.03
2023-02-14T18:07:03.388Z,1022.10
2023-02-14T18:08:03.313Z,1022.06
2023-02-14T18:09:03.262Z,1022.11
2023-02-14T18:10:03.173Z,1022.12
2023-02-14T18:11:03.295Z,1022.09
2023-02-14T18:12:03.617Z,1022.13
2023-02-14T18:13:03.084Z,1022.13
2023-02-14T18:14:03.048Z,1022.11
2023-02-14T18:15:03.014Z,1022.16
2023-02-14T18:16:02.931Z,1022.19
2023-02-14T18:17:02.897Z,1022.23
2023-02-14T18:18:02.824Z,1022.18
2023-02-14T18:19:02.777Z,1022.25
2023-02-14T18:20:02.710Z,1022.24
2023-02-14T18:21:03.027Z,1022.21
2023-02-14T18:22:02.619Z,1022.25
2023-02-14T18:23:02.530Z,1022.24
2023-02-14T18:23:51.808Z,1022.25
2023-02-14T18:24:59.547Z,1022.31
2023-02-14T18:25:55.392Z,1022.25
2023-02-14T18:26:52.992Z,1022.25
2023-02-14T18:27:53.055Z,1022.24
2023-02-14T18:28:53.144Z,1022.27
2023-02-14T18:29:53.278Z,1022.32
2023-02-14T18:30:53.412Z,1022.30
2023-02-14T18:31:53.611Z,1022.27
2023-02-14T18:32:53.510Z,1022.39
2023-02-14T18:33:53.725Z,1022.35
2023-02-14T18:34:53.798Z,1022.39
2023-02-14T18:35:53.831Z,1022.43
2023-02-14T18:36:53.869Z,1022.45
2023-02-14T18:37:54.005Z,1022.45
2023-02-14T18:38:54.142Z,1022.48
2023-02-14T18:39:54.175Z,1022.51
2023-02-14T18:40:54.261Z,1022.52
2023-02-14T18:41:54.490Z,1022.53
2023-02-14T18:42:54.492Z,1022.50
2023-02-14T18:43:54.520Z,1022.52
2023-02-14T18:44:54.771Z,1022.52
2023-02-14T18:45:54.849Z,1022.54
2023-02-14T18:46:54.809Z,1022.51
2023-02-14T18:47:55.032Z,1022.54
2023-02-14T18:48:55.060Z,1022.58
2023-02-14T18:49:55.188Z,1022.48
2023-02-14T18:50:55.175Z,1022.47
2023-02-14T18:51:55.246Z,1022.51
2023-02-14T18:52:55.314Z,1022.51
2023-02-14T18:53:55.504Z,1022.49
2023-02-14T18:54:55.582Z,1022.49
2023-02-14T18:55:55.641Z,1022.51
2023-02-14T18:56:55.641Z,1022.50
2023-02-14T18:57:55.814Z,1022.52
2023-02-14T18:58:55.858Z,1022.55
2023-02-14T18:59:55.948Z,1022.53
2023-02-14T19:00:55.963Z,1022.57
2023-02-14T19:01:56.070Z,1022.57
2023-02-14T19:02:56.189Z,1022.56
2023-02-14T19:03:56.347Z,1022.58
2023-02-14T19:04:56.393Z,1022.55
2023-02-14T19:05:56.393Z,1022.62
2023-02-14T19:06:56.510Z,1022.58
2023-02-14T19:07:56.715Z,1022.61
2023-02-14T19:08:56.900Z,1022.65
2023-02-14T19:09:56.787Z,1022.65
2023-02-14T19:10:56.808Z,1022.67
2023-02-14T19:11:56.927Z,1022.65
2023-02-14T19:12:50.604Z,102272.29
2023-02-14T19:13:50.561Z,102270.32
2023-02-14T19:14:50.666Z,102266.75
2023-02-14T19:15:50.592Z,102273.22
2023-02-14T19:16:50.777Z,102268.65
2023-02-14T19:17:50.451Z,102273.92
2023-02-14T19:18:50.470Z,102274.07
2023-02-14T19:19:50.374Z,102274.92
2023-02-14T19:20:50.274Z,102278.04
2023-02-14T19:21:50.336Z,102274.95
2023-02-14T19:22:50.291Z,102280.48
2023-02-14T19:23:50.224Z,102278.28
2023-02-14T19:24:50.300Z,102282.12
2023-02-14T19:25:51.895Z,102277.34
2023-02-14T19:26:50.830Z,102280.28
2023-02-14T19:27:50.157Z,102284.69
2023-02-14T19:28:50.040Z,102290.74
2023-02-14T19:29:50.070Z,102284.54
2023-02-14T19:30:49.963Z,102285.04
2023-02-14T19:31:50.907Z,102291.78
2023-02-14T19:32:49.905Z,102292.75
2023-02-14T19:33:49.889Z,102286.25
2023-02-14T19:34:49.852Z,102289.93
2023-02-14T19:35:49.833Z,102287.85
2023-02-14T19:36:49.881Z,102290.98
2023-02-14T19:37:49.768Z,102289.06
2023-02-14T19:38:49.836Z,102293.28
2023-02-14T19:39:49.711Z,102295.49
2023-02-14T19:40:49.625Z,102298.57
2023-02-14T19:41:49.592Z,102291
2023-02-14T19:42:49.646Z,102296.36
2023-02-14T19:43:49.606Z,102297.72
2023-02-14T19:44:49.467Z,102295.92
2023-02-14T19:45:50.433Z,102300.66
2023-02-14T19:46:49.375Z,102305.94
2023-02-14T19:47:50.281Z,102293.46
2023-02-14T19:48:49.311Z,102299.1
2023-02-14T19:49:49.243Z,102306.01
2023-02-14T19:50:25.589Z,1023.01
2023-02-14T19:51:26.566Z,1022.97
2023-02-14T19:52:27.214Z,1023.09
2023-02-14T19:53:26.824Z,1023.01
2023-02-14T19:54:27.014Z,1023.04
2023-02-14T19:55:27.797Z,1023.08
2023-02-14T19:56:27.145Z,1023.16
2023-02-14T19:57:27.389Z,1023.10
2023-02-14T19:58:27.494Z,1023.09
2023-02-14T19:59:27.445Z,1023.22
2023-02-14T20:00:59.509Z,1023.16
2023-02-14T20:02:00.447Z,1023.22
2023-02-14T20:03:00.408Z,1023.17
2023-02-14T20:04:00.580Z,1023.23
2023-02-14T20:05:00.682Z,1023.25
2023-02-14T20:06:00.747Z,1023.29
2023-02-14T20:07:00.963Z,1023.30
2023-02-14T20:08:00.986Z,1023.30
2023-02-14T20:09:01.122Z,1023.31
2023-02-14T20:10:00.217Z,1023.32
2023-02-14T20:11:00.613Z,1023.30
2023-02-14T20:12:01.467Z,1023.32
2023-02-14T20:13:01.607Z,1023.33
2023-02-14T20:14:01.625Z,1023.37
2023-02-14T20:15:01.889Z,1023.36
2023-02-14T20:16:01.834Z,1023.38
2023-02-14T20:17:02.129Z,1023.34
2023-02-14T20:18:02.165Z,1023.38
2023-02-14T20:19:02.187Z,1023.36
2023-02-14T20:20:01.279Z,1023.36
2023-02-14T20:21:01.743Z,1023.39
